Time;durP1;ratioP1;P1;durP2;ratioP2;P2;SDS_P1;SDS_P2;PMS_P1;PMS_P2;Temp;Humidity;BMP_temperature;BMP_pressure;BME280_temperature;BME280_humidity;BME280_pressure;Samples;Min_cycle;Max_cycle;Signal;HPM_P1;HPM_P2
2022/11/07 00:01:47;;;;;;;2.07;0.70;;;8.80;99.90;;;;;;5059094;28;20196;-70
2022/11/07 00:04:13;;;;;;;1.20;0.60;;;8.80;99.90;;;;;;5072585;28;20358;-70
2022/11/07 00:06:39;;;;;;;2.47;0.80;;;8.80;99.90;;;;;;5072244;28;21312;-71
2022/11/07 00:09:05;;;;;;;2.50;0.97;;;8.80;99.90;;;;;;5072356;28;20462;-70
2022/11/07 00:11:30;;;;;;;1.60;0.80;;;8.80;99.90;;;;;;5071583;28;20185;-70
2022/11/07 00:13:56;;;;;;;1.30;0.50;;;8.80;99.90;;;;;;5071705;28;20216;-71
2022/11/07 00:16:22;;;;;;;2.07;0.87;;;8.80;99.90;;;;;;5072489;28;20184;-70
2022/11/07 00:18:47;;;;;;;1.53;0.70;;;8.80;99.90;;;;;;5072387;28;20627;-70
2022/11/07 00:21:13;;;;;;;1.73;0.90;;;8.80;99.90;;;;;;5081906;28;20769;-71
2022/11/07 00:23:40;;;;;;;1.70;0.90;;;8.70;99.90;;;;;;5071871;28;20185;-70
2022/11/07 00:26:11;;;;;;;2.63;0.80;;;8.70;99.90;;;;;;5071476;28;20175;-69
2022/11/07 00:28:39;;;;;;;4.90;0.60;;;8.70;99.90;;;;;;5071809;28;20415;-69
2022/11/07 00:31:06;;;;;;;1.43;0.60;;;8.70;99.90;;;;;;5072543;28;20455;-71
2022/11/07 00:33:32;;;;;;;2.07;0.80;;;8.70;99.90;;;;;;5071519;28;20486;-71
2022/11/07 00:35:57;;;;;;;1.40;0.77;;;8.70;99.90;;;;;;5071228;28;20485;-71
2022/11/07 00:38:23;;;;;;;3.30;0.70;;;8.70;99.90;;;;;;5071840;28;20204;-71
2022/11/07 00:41:02;;;;;;;1.60;0.70;;;8.70;99.90;;;;;;5071490;28;20278;-71
2022/11/07 00:43:28;;;;;;;2.23;0.80;;;8.70;99.90;;;;;;5075616;28;20213;-71
2022/11/07 00:45:54;;;;;;;1.50;0.60;;;8.70;99.90;;;;;;5078423;28;20433;-68
2022/11/07 00:48:20;;;;;;;1.63;0.80;;;8.70;99.90;;;;;;5071667;28;20427;-69
2022/11/07 00:50:45;;;;;;;1.20;0.60;;;8.70;99.90;;;;;;5071718;28;20622;-68
2022/11/07 00:53:11;;;;;;;1.40;0.63;;;8.60;99.90;;;;;;5081944;28;20687;-69
2022/11/07 00:55:36;;;;;;;2.27;1.03;;;8.60;99.90;;;;;;5073114;28;20173;-69
2022/11/07 00:58:02;;;;;;;1.83;0.70;;;8.60;99.90;;;;;;5068901;28;20185;-69
2022/11/07 01:00:28;;;;;;;1.30;0.70;;;8.50;99.90;;;;;;5071860;28;20630;-69
2022/11/07 01:05:38;;;;;;;2.00;0.90;;;8.40;99.90;;;;;;5071566;28;20652;-69
2022/11/07 01:08:05;;;;;;;2.37;0.87;;;8.40;99.90;;;;;;5071400;28;20502;-69
2022/11/07 01:10:30;;;;;;;2.40;1.17;;;8.40;99.90;;;;;;5071736;28;20271;-69
2022/11/07 01:12:56;;;;;;;1.40;0.80;;;8.40;99.90;;;;;;5070860;28;20550;-69
2022/11/07 01:15:22;;;;;;;1.70;0.70;;;8.50;99.90;;;;;;5072147;28;20196;-69
2022/11/07 01:17:47;;;;;;;1.67;0.80;;;8.50;99.90;;;;;;5071972;28;20185;-69
2022/11/07 01:20:13;;;;;;;2.50;0.90;;;8.50;99.90;;;;;;5071655;28;20186;-69
2022/11/07 01:22:38;;;;;;;2.30;0.93;;;8.50;99.90;;;;;;5062579;28;20252;-69
2022/11/07 01:25:04;;;;;;;1.63;0.93;;;8.50;99.90;;;;;;5071711;28;20272;-69
2022/11/07 01:27:30;;;;;;;2.23;0.80;;;8.50;99.90;;;;;;5070740;28;20212;-69
2022/11/07 01:29:55;;;;;;;1.57;0.80;;;8.50;99.90;;;;;;5071457;28;20459;-69
2022/11/07 01:32:21;;;;;;;1.90;0.63;;;8.50;99.90;;;;;;5081288;28;20179;-69
2022/11/07 01:34:47;;;;;;;3.43;0.70;;;8.50;99.90;;;;;;5107053;22;20265;-69
2022/11/07 01:37:13;;;;;;;2.73;0.90;;;8.50;99.90;;;;;;5078846;28;20172;-70
2022/11/07 01:39:38;;;;;;;1.80;0.77;;;8.50;99.90;;;;;;5093326;28;20787;-69
2022/11/07 01:42:04;;;;;;;1.90;0.80;;;8.50;99.90;;;;;;5078889;28;20208;-69
2022/11/07 01:44:38;;;;;;;1.90;0.90;;;8.50;99.90;;;;;;5094376;28;20208;-69
2022/11/07 01:47:04;;;;;;;1.40;0.63;;;8.40;99.90;;;;;;5094729;28;20542;-69
2022/11/07 01:49:33;;;;;;;1.50;0.80;;;8.50;99.90;;;;;;5095041;28;20501;-70
2022/11/07 01:52:24;;;;;;;2.30;1.10;;;8.50;99.90;;;;;;5097911;28;20187;-70
2022/11/07 01:55:00;;;;;;;2.43;0.70;;;8.50;99.90;;;;;;5073095;28;20542;-69
2022/11/07 01:57:37;;;;;;;6.33;1.03;;;8.50;99.90;;;;;;5089551;28;20429;-70
2022/11/07 02:00:07;;;;;;;2.13;0.70;;;8.50;99.90;;;;;;5097912;28;20413;-71
2022/11/07 02:02:33;;;;;;;2.23;1.00;;;8.50;99.90;;;;;;5095893;28;20402;-70
2022/11/07 02:05:00;;;;;;;2.87;1.20;;;8.50;99.90;;;;;;5092948;28;20908;-70
2022/11/07 02:07:27;;;;;;;2.57;1.20;;;8.50;99.90;;;;;;5095260;28;20425;-70
2022/11/07 02:09:53;;;;;;;1.70;0.70;;;8.60;99.90;;;;;;5082400;28;20900;-69
2022/11/07 02:12:21;;;;;;;4.70;1.03;;;8.60;99.90;;;;;;5094613;28;20445;-70
2022/11/07 02:14:47;;;;;;;5.37;0.97;;;8.60;99.90;;;;;;5094526;28;20969;-69
2022/11/07 02:17:14;;;;;;;1.50;0.70;;;8.70;99.90;;;;;;5094777;28;20497;-69
2022/11/07 02:19:46;;;;;;;1.90;0.87;;;8.70;99.90;;;;;;5090897;28;20169;-70
2022/11/07 02:22:18;;;;;;;2.53;0.90;;;8.70;99.90;;;;;;5090362;28;20418;-70
2022/11/07 02:24:46;;;;;;;3.60;1.20;;;8.70;99.90;;;;;;5088820;28;20453;-69
2022/11/07 02:27:13;;;;;;;1.20;0.50;;;8.70;99.90;;;;;;5080162;28;20804;-70
2022/11/07 02:29:43;;;;;;;1.30;0.60;;;8.80;99.90;;;;;;5084663;28;20427;-69
2022/11/07 02:32:11;;;;;;;3.53;0.67;;;8.80;99.90;;;;;;5090925;28;20817;-70
2022/11/07 02:34:37;;;;;;;1.40;0.70;;;8.80;99.90;;;;;;5094409;28;20470;-70
2022/11/07 02:37:12;;;;;;;1.70;0.80;;;8.80;99.90;;;;;;5090509;28;20845;-70
2022/11/07 02:39:37;;;;;;;1.37;0.63;;;8.90;99.90;;;;;;5085401;28;20410;-70
2022/11/07 02:42:05;;;;;;;1.70;1.00;;;8.90;99.90;;;;;;5089061;28;20421;-70
2022/11/07 02:44:31;;;;;;;1.70;1.00;;;8.90;99.90;;;;;;5067619;28;20207;-70
2022/11/07 02:46:57;;;;;;;2.83;1.00;;;8.90;99.90;;;;;;5080989;28;20418;-69
2022/11/07 02:49:23;;;;;;;1.43;0.73;;;8.90;99.90;;;;;;5094589;28;20907;-70
2022/11/07 02:51:49;;;;;;;1.67;0.70;;;8.90;99.90;;;;;;5089383;28;20475;-70
2022/11/07 02:54:14;;;;;;;1.37;0.53;;;8.90;99.90;;;;;;5092481;28;20207;-69
2022/11/07 02:56:40;;;;;;;1.70;0.77;;;8.90;99.90;;;;;;5079584;28;20648;-70
2022/11/07 02:59:05;;;;;;;1.30;0.70;;;8.90;99.90;;;;;;5088272;28;20181;-70
2022/11/07 03:01:31;;;;;;;3.23;0.70;;;8.90;99.90;;;;;;5092071;28;20195;-70
2022/11/07 03:03:57;;;;;;;1.77;0.83;;;8.80;99.90;;;;;;5094054;28;20464;-70
2022/11/07 03:06:24;;;;;;;2.57;0.70;;;8.80;99.90;;;;;;5094121;28;20180;-69
2022/11/07 03:08:50;;;;;;;3.83;1.00;;;8.80;99.90;;;;;;5093541;28;20199;-70
2022/11/07 03:11:18;;;;;;;1.40;0.70;;;8.80;99.90;;;;;;5090210;28;20419;-70
2022/11/07 03:13:48;;;;;;;1.97;0.80;;;8.80;99.90;;;;;;5078123;28;20459;-70
2022/11/07 03:16:14;;;;;;;3.53;0.80;;;8.80;99.90;;;;;;5093061;28;20509;-70
2022/11/07 03:18:40;;;;;;;1.60;0.67;;;8.70;99.90;;;;;;5093818;28;20415;-70
2022/11/07 03:21:06;;;;;;;3.63;0.90;;;8.80;99.90;;;;;;5079714;28;20418;-70
2022/11/07 03:23:34;;;;;;;1.90;0.83;;;8.70;99.90;;;;;;5080159;28;20189;-69
2022/11/07 03:25:59;;;;;;;1.20;0.60;;;8.70;99.90;;;;;;5092876;28;20447;-69
2022/11/07 03:28:25;;;;;;;2.50;0.93;;;8.70;99.90;;;;;;5079805;28;21025;-69
2022/11/07 03:30:51;;;;;;;6.00;0.70;;;8.70;99.90;;;;;;5093311;28;20180;-69
2022/11/07 03:33:17;;;;;;;1.80;0.87;;;8.70;99.90;;;;;;5082087;28;20331;-69
2022/11/07 03:35:42;;;;;;;4.80;1.03;;;8.60;99.90;;;;;;5078896;28;20497;-69
2022/11/07 03:38:09;;;;;;;1.70;0.80;;;8.60;99.90;;;;;;5080309;28;20667;-69
2022/11/07 03:40:35;;;;;;;1.47;0.70;;;8.60;99.90;;;;;;5086960;28;20181;-69
2022/11/07 03:43:00;;;;;;;2.57;0.93;;;8.50;99.90;;;;;;5084847;28;20422;-70
2022/11/07 03:45:26;;;;;;;2.87;0.90;;;8.50;99.90;;;;;;5079672;28;20740;-70
2022/11/07 03:47:52;;;;;;;9.43;0.73;;;8.60;99.90;;;;;;5093132;28;20215;-69
2022/11/07 03:50:19;;;;;;;1.90;0.80;;;8.50;99.90;;;;;;5087939;28;20646;-70
2022/11/07 03:52:46;;;;;;;1.47;0.90;;;8.50;99.90;;;;;;5084944;28;20528;-70
2022/11/07 03:55:14;;;;;;;1.80;0.90;;;8.60;99.90;;;;;;5090590;28;20414;-70
2022/11/07 03:57:40;;;;;;;1.87;0.80;;;8.60;99.90;;;;;;5085711;28;20783;-70
2022/11/07 04:00:07;;;;;;;4.83;1.10;;;8.60;99.90;;;;;;5086954;28;20475;-70
2022/11/07 04:02:32;;;;;;;2.37;0.60;;;8.60;99.90;;;;;;5083583;28;20453;-70
2022/11/07 04:04:58;;;;;;;1.37;0.63;;;8.60;99.90;;;;;;5092726;28;20418;-70
2022/11/07 04:07:23;;;;;;;1.50;0.70;;;8.60;99.90;;;;;;5079273;28;20215;-70
2022/11/07 04:09:49;;;;;;;3.33;0.97;;;8.60;99.90;;;;;;5092295;28;20656;-69
2022/11/07 04:17:43;;;;;;;1.93;0.70;;;8.50;99.90;;;;;;5092594;28;20417;-69
2022/11/07 04:20:10;;;;;;;1.40;0.73;;;8.40;99.90;;;;;;5084928;28;20416;-70
2022/11/07 04:22:36;;;;;;;9.13;1.43;;;8.40;99.90;;;;;;5089845;28;20223;-70
2022/11/07 04:25:01;;;;;;;7.63;2.60;;;8.40;99.90;;;;;;5092517;28;20902;-70
2022/11/07 04:27:42;;;;;;;7.53;2.77;;;8.40;99.90;;;;;;5077918;28;20180;-70
2022/11/07 04:30:17;;;;;;;7.13;3.40;;;8.40;99.90;;;;;;5091706;28;20204;-70
2022/11/07 04:32:51;;;;;;;2.90;1.53;;;8.40;99.90;;;;;;5071713;28;20931;-70
2022/11/07 04:35:19;;;;;;;2.80;1.07;;;8.40;99.90;;;;;;5086244;28;20433;-70
2022/11/07 04:37:45;;;;;;;1.60;0.83;;;8.40;99.90;;;;;;5090917;28;20453;-70
2022/11/07 04:40:12;;;;;;;4.93;2.50;;;8.40;99.90;;;;;;5077527;28;20807;-70
2022/11/07 04:42:38;;;;;;;3.47;1.43;;;8.40;99.90;;;;;;5090152;28;20418;-70
2022/11/07 04:45:05;;;;;;;1.60;0.70;;;8.40;99.90;;;;;;5077324;28;20419;-69
2022/11/07 04:47:30;;;;;;;1.60;0.60;;;8.40;99.90;;;;;;5090739;28;20410;-69
2022/11/07 04:49:56;;;;;;;3.10;0.90;;;8.40;99.90;;;;;;5085068;28;20418;-69
2022/11/07 04:52:21;;;;;;;1.67;0.83;;;8.40;99.90;;;;;;5087298;28;20188;-69
2022/11/07 04:54:47;;;;;;;1.30;0.70;;;8.40;99.90;;;;;;5087261;28;20244;-69
2022/11/07 04:57:14;;;;;;;2.57;1.10;;;8.50;99.90;;;;;;5079846;28;20188;-69
2022/11/07 04:59:40;;;;;;;1.40;0.70;;;8.50;99.90;;;;;;5085822;28;20715;-70
2022/11/07 05:02:07;;;;;;;1.40;0.57;;;8.50;99.90;;;;;;5090868;28;20415;-70
2022/11/07 05:04:33;;;;;;;1.30;0.53;;;8.50;99.90;;;;;;5087354;28;20610;-70
2022/11/07 05:06:58;;;;;;;6.10;1.20;;;8.40;99.90;;;;;;5081329;28;20505;-69
2022/11/07 05:09:24;;;;;;;1.50;0.73;;;8.50;99.90;;;;;;5090830;28;20176;-70
2022/11/07 05:11:50;;;;;;;2.77;1.33;;;8.50;99.90;;;;;;5089745;28;20259;-70
2022/11/07 05:14:15;;;;;;;4.37;1.97;;;8.50;99.90;;;;;;5090277;28;20243;-70
2022/11/07 05:16:42;;;;;;;3.13;0.93;;;8.50;99.90;;;;;;5090865;28;20200;-70
2022/11/07 05:19:15;;;;;;;1.47;0.70;;;8.50;99.90;;;;;;5077057;28;20192;-70
2022/11/07 05:21:41;;;;;;;4.33;1.33;;;8.50;99.90;;;;;;5076817;28;20458;-70
2022/11/07 05:24:06;;;;;;;2.37;0.87;;;8.60;99.90;;;;;;5076414;28;20472;-70
2022/11/07 05:26:32;;;;;;;2.17;0.90;;;8.60;99.90;;;;;;5080385;28;20743;-70
2022/11/07 05:28:57;;;;;;;1.93;1.03;;;8.70;99.90;;;;;;5089820;28;20184;-70
2022/11/07 05:31:23;;;;;;;4.03;0.87;;;8.80;99.90;;;;;;5090696;28;20188;-70
2022/11/07 05:33:48;;;;;;;1.63;1.03;;;8.90;99.90;;;;;;5047979;28;1089744;-69
2022/11/07 05:36:17;;;;;;;1.37;0.80;;;9.00;99.90;;;;;;5080973;28;20183;-69
2022/11/07 05:38:45;;;;;;;1.50;0.70;;;9.00;99.90;;;;;;5089038;28;20237;-69
2022/11/07 05:41:11;;;;;;;5.37;1.00;;;9.10;99.90;;;;;;5083823;28;20419;-70
2022/11/07 05:43:37;;;;;;;2.67;1.00;;;9.10;99.90;;;;;;5089831;28;20422;-69
2022/11/07 05:46:03;;;;;;;1.67;0.80;;;9.20;99.90;;;;;;5086074;28;20418;-69
2022/11/07 05:48:30;;;;;;;3.53;0.77;;;9.10;99.90;;;;;;5095462;28;20493;-69
2022/11/07 05:50:56;;;;;;;2.10;1.20;;;9.10;99.90;;;;;;5072870;28;20437;-70
2022/11/07 05:53:24;;;;;;;2.63;0.73;;;9.20;99.90;;;;;;5064604;28;20465;-69
2022/11/07 05:55:51;;;;;;;1.30;0.60;;;9.20;99.90;;;;;;5078691;28;20438;-69
2022/11/07 05:58:17;;;;;;;1.47;0.80;;;9.20;99.90;;;;;;5092400;28;20418;-69
2022/11/07 06:00:43;;;;;;;6.50;1.30;;;9.20;99.90;;;;;;5090921;28;20422;-69
2022/11/07 06:03:08;;;;;;;2.70;1.50;;;9.20;99.90;;;;;;5094514;28;20508;-70
2022/11/07 06:05:35;;;;;;;1.70;0.90;;;9.20;99.90;;;;;;5095136;28;20209;-69
2022/11/07 06:08:01;;;;;;;2.00;1.03;;;9.20;99.90;;;;;;5095006;28;20180;-70
2022/11/07 06:10:26;;;;;;;2.23;0.97;;;9.20;99.90;;;;;;5095286;28;20414;-69
2022/11/07 06:13:00;;;;;;;1.70;0.93;;;9.20;99.90;;;;;;5093173;28;20223;-69
2022/11/07 06:15:27;;;;;;;1.40;0.67;;;9.20;99.90;;;;;;5094928;28;20666;-70
2022/11/07 06:17:53;;;;;;;2.47;0.90;;;9.20;99.90;;;;;;5094982;28;20472;-69
2022/11/07 06:20:19;;;;;;;2.73;1.00;;;9.30;99.90;;;;;;5067470;28;21105;-69
2022/11/07 06:22:45;;;;;;;5.10;1.07;;;9.30;99.90;;;;;;5082969;28;20258;-69
2022/11/07 06:25:10;;;;;;;2.20;1.10;;;9.40;99.90;;;;;;5087853;28;20539;-70
2022/11/07 06:27:36;;;;;;;3.00;1.13;;;9.50;99.90;;;;;;5093323;28;20176;-70
2022/11/07 06:30:02;;;;;;;1.20;0.60;;;9.50;99.90;;;;;;5085675;28;20195;-70
2022/11/07 06:32:27;;;;;;;6.10;0.90;;;9.50;99.90;;;;;;5080773;28;20595;-69
2022/11/07 06:34:53;;;;;;;2.33;0.90;;;9.50;99.90;;;;;;5081212;28;20555;-69
2022/11/07 06:37:19;;;;;;;3.00;1.00;;;9.50;99.90;;;;;;5080092;28;20172;-69
2022/11/07 06:39:44;;;;;;;1.40;0.70;;;9.50;99.90;;;;;;5094449;28;20690;-70
2022/11/07 06:42:10;;;;;;;1.87;1.00;;;9.50;99.90;;;;;;5093214;28;20194;-70
2022/11/07 06:44:36;;;;;;;6.73;1.10;;;9.50;99.90;;;;;;5080788;28;20189;-69
2022/11/07 06:47:01;;;;;;;3.63;1.53;;;9.40;99.90;;;;;;5094298;28;20188;-69
2022/11/07 06:49:27;;;;;;;4.20;1.40;;;9.40;99.90;;;;;;5081108;28;20626;-69
2022/11/07 06:51:53;;;;;;;3.30;1.30;;;9.40;99.90;;;;;;5093003;28;20196;-69
2022/11/07 06:54:18;;;;;;;6.97;1.60;;;9.40;99.90;;;;;;5091465;28;20258;-69
2022/11/07 06:56:44;;;;;;;6.07;1.50;;;9.40;99.90;;;;;;5084423;28;20180;-68
2022/11/07 06:59:10;;;;;;;2.20;1.17;;;9.30;99.90;;;;;;5090927;28;20180;-69
2022/11/07 07:01:35;;;;;;;1.77;1.07;;;9.40;99.90;;;;;;5086972;28;20695;-69
2022/11/07 07:04:01;;;;;;;3.97;1.47;;;9.40;99.90;;;;;;5076963;28;20629;-69
2022/11/07 07:06:26;;;;;;;4.60;1.07;;;9.40;99.90;;;;;;5080320;28;20189;-69
2022/11/07 07:08:53;;;;;;;3.90;1.47;;;9.30;99.90;;;;;;5081165;28;20245;-69
2022/11/07 07:11:19;;;;;;;4.60;1.23;;;9.30;99.90;;;;;;5087025;28;20184;-69
2022/11/07 07:13:44;;;;;;;4.63;1.10;;;9.30;99.90;;;;;;5084280;28;20477;-69
2022/11/07 07:16:10;;;;;;;1.73;0.80;;;9.30;99.90;;;;;;5076096;28;20184;-69
2022/11/07 07:18:35;;;;;;;4.47;1.27;;;9.30;99.90;;;;;;5087476;28;20191;-69
2022/11/07 07:21:05;;;;;;;1.57;0.77;;;9.30;99.90;;;;;;5087554;28;20633;-69
2022/11/07 07:23:33;;;;;;;2.13;0.90;;;9.40;99.90;;;;;;5091949;28;20192;-67
2022/11/07 07:26:00;;;;;;;1.73;1.10;;;9.40;99.90;;;;;;5092885;28;21276;-69
2022/11/07 07:28:25;;;;;;;1.80;1.10;;;9.40;99.90;;;;;;5092423;28;20775;-69
2022/11/07 07:30:52;;;;;;;1.83;0.80;;;9.40;99.90;;;;;;5093449;28;20418;-69
2022/11/07 07:33:17;;;;;;;3.17;1.20;;;9.40;99.90;;;;;;5092463;28;20303;-68
2022/11/07 07:35:43;;;;;;;1.70;0.93;;;9.50;99.90;;;;;;5079340;28;20965;-75
2022/11/07 07:38:10;;;;;;;2.73;0.90;;;9.50;99.90;;;;;;5092707;28;20185;-67
2022/11/07 07:40:36;;;;;;;1.30;0.70;;;9.50;99.90;;;;;;5086667;28;20212;-71
2022/11/07 07:43:02;;;;;;;2.20;1.00;;;9.60;99.90;;;;;;5085156;28;20458;-69
2022/11/07 07:45:27;;;;;;;2.70;0.70;;;9.60;99.90;;;;;;5090830;28;20188;-74
2022/11/07 07:47:59;;;;;;;7.63;1.43;;;9.70;99.90;;;;;;5081545;28;20177;-76
2022/11/07 07:50:25;;;;;;;2.30;0.70;;;9.80;99.90;;;;;;5093811;28;20951;-70
2022/11/07 07:52:57;;;;;;;3.50;0.80;;;9.90;99.90;;;;;;5087676;28;20422;-71
2022/11/07 07:55:23;;;;;;;5.00;1.33;;;10.00;99.90;;;;;;5071315;28;20263;-71
2022/11/07 07:57:49;;;;;;;4.10;1.27;;;10.10;99.90;;;;;;5081184;28;20431;-71
2022/11/07 08:00:15;;;;;;;2.90;1.33;;;10.20;99.90;;;;;;5086990;28;20442;-71
2022/11/07 08:02:42;;;;;;;6.97;1.57;;;10.20;99.90;;;;;;5088569;28;20395;-71
2022/11/07 08:05:10;;;;;;;2.57;0.80;;;10.30;99.90;;;;;;5081342;28;20180;-71
2022/11/07 08:07:35;;;;;;;1.83;0.80;;;10.30;99.90;;;;;;5085789;28;20415;-71
2022/11/07 08:10:01;;;;;;;2.23;1.00;;;10.40;99.90;;;;;;5072734;28;20423;-71
2022/11/07 08:12:26;;;;;;;1.60;0.70;;;10.50;99.90;;;;;;5089621;28;20915;-71
2022/11/07 08:14:52;;;;;;;2.07;0.87;;;10.50;99.90;;;;;;5078723;28;20208;-71
2022/11/07 08:17:17;;;;;;;2.87;1.00;;;10.50;99.90;;;;;;5076918;28;20584;-71
2022/11/07 08:19:43;;;;;;;3.07;1.23;;;10.50;99.90;;;;;;5090054;28;20184;-71
2022/11/07 08:22:10;;;;;;;2.67;1.17;;;10.50;99.90;;;;;;5090005;28;20180;-71
2022/11/07 08:24:35;;;;;;;1.50;0.77;;;10.50;99.90;;;;;;5085948;28;20177;-71
2022/11/07 08:27:01;;;;;;;3.10;1.13;;;10.60;99.90;;;;;;5084476;28;20432;-71
2022/11/07 08:29:26;;;;;;;6.20;1.90;;;10.60;99.90;;;;;;5090448;28;20180;-70
2022/11/07 08:31:52;;;;;;;4.50;1.43;;;10.60;99.90;;;;;;5072516;28;20189;-70
2022/11/07 08:34:18;;;;;;;3.83;0.90;;;10.70;99.90;;;;;;5091427;28;20793;-71
2022/11/07 08:36:43;;;;;;;4.00;1.27;;;10.60;99.90;;;;;;5090973;28;20180;-71
2022/11/07 08:39:09;;;;;;;3.50;1.30;;;10.60;99.90;;;;;;5091726;28;20176;-71
2022/11/07 08:41:34;;;;;;;5.70;1.33;;;10.70;99.90;;;;;;5091425;28;20188;-71
2022/11/07 08:44:00;;;;;;;10.90;2.00;;;10.80;99.90;;;;;;5089796;28;20719;-71
2022/11/07 08:46:26;;;;;;;2.33;1.20;;;10.70;99.90;;;;;;5091427;28;20180;-71
2022/11/07 08:48:51;;;;;;;2.07;1.07;;;10.70;99.90;;;;;;5088109;28;20275;-71
2022/11/07 08:51:17;;;;;;;4.13;0.97;;;10.70;99.90;;;;;;5091613;28;20188;-71
2022/11/07 08:53:42;;;;;;;3.43;1.67;;;10.70;99.90;;;;;;5083827;28;20692;-71
2022/11/07 08:56:09;;;;;;;6.30;1.70;;;10.70;99.90;;;;;;5083766;28;20625;-70
2022/11/07 08:58:36;;;;;;;1.70;0.80;;;10.80;99.90;;;;;;5075076;28;20177;-72
2022/11/07 09:01:05;;;;;;;2.20;0.80;;;10.90;99.90;;;;;;5091675;28;20426;-70
2022/11/07 09:03:33;;;;;;;4.47;1.70;;;10.90;99.90;;;;;;5090829;28;20450;-71
2022/11/07 09:05:58;;;;;;;2.50;1.00;;;11.00;99.90;;;;;;5087460;28;20465;-71
2022/11/07 09:08:24;;;;;;;5.00;0.77;;;11.10;99.90;;;;;;5091405;28;20942;-71
2022/11/07 09:10:50;;;;;;;2.50;0.80;;;11.10;99.90;;;;;;5091531;28;20184;-71
2022/11/07 09:13:15;;;;;;;1.60;0.60;;;11.20;99.90;;;;;;5089612;28;20219;-71
2022/11/07 09:15:41;;;;;;;5.17;0.90;;;11.20;99.90;;;;;;5091156;28;20173;-71
2022/11/07 09:18:06;;;;;;;3.43;1.17;;;11.30;99.90;;;;;;5091087;28;20226;-71
2022/11/07 09:20:33;;;;;;;8.83;1.00;;;11.30;99.90;;;;;;5089973;28;20191;-72
2022/11/07 09:22:59;;;;;;;2.17;1.10;;;11.30;99.90;;;;;;5078485;28;20259;-71
2022/11/07 09:25:25;;;;;;;1.93;0.87;;;11.40;99.90;;;;;;5080847;28;20411;-71
2022/11/07 09:27:51;;;;;;;2.40;0.80;;;11.40;99.90;;;;;;5089587;28;20469;-71
2022/11/07 09:30:19;;;;;;;3.47;1.00;;;11.50;99.90;;;;;;5090688;28;20883;-71
2022/11/07 09:32:44;;;;;;;1.73;1.00;;;11.60;99.90;;;;;;5081806;28;20422;-71
2022/11/07 09:35:10;;;;;;;4.87;1.50;;;11.70;99.90;;;;;;5086170;28;20454;-71
2022/11/07 09:37:40;;;;;;;2.80;1.67;;;11.70;99.90;;;;;;5081396;28;20188;-71
2022/11/07 09:40:23;;;;;;;5.30;1.27;;;11.80;99.90;;;;;;5086143;28;20218;-71
2022/11/07 09:43:05;;;;;;;1.30;0.60;;;11.70;99.90;;;;;;5089851;28;20493;-71
2022/11/07 09:45:41;;;;;;;1.50;0.60;;;11.70;99.90;;;;;;5078161;28;20933;-71
2022/11/07 09:48:20;;;;;;;4.80;1.50;;;11.70;99.90;;;;;;5089258;28;20427;-71
2022/11/07 09:50:48;;;;;;;3.53;1.73;;;11.80;99.90;;;;;;5085622;28;20800;-71
2022/11/07 09:53:27;;;;;;;2.23;1.00;;;11.70;99.90;;;;;;5081541;28;20455;-71
2022/11/07 09:55:57;;;;;;;4.37;1.20;;;11.60;99.90;;;;;;5083327;28;20416;-71
2022/11/07 09:58:36;;;;;;;4.37;1.20;;;11.60;99.90;;;;;;5088703;28;20475;-71
2022/11/07 10:01:05;;;;;;;2.00;1.00;;;11.60;99.90;;;;;;5084907;28;20612;-71
2022/11/07 10:03:33;;;;;;;7.47;1.47;;;11.70;99.90;;;;;;5078351;28;20418;-71
2022/11/07 10:06:14;;;;;;;5.43;0.90;;;11.70;99.90;;;;;;5071068;28;20435;-71
2022/11/07 10:09:19;;;;;;;3.60;0.60;;;11.70;99.90;;;;;;5090586;28;20437;-71
2022/11/07 10:11:55;;;;;;;4.17;1.63;;;11.80;99.90;;;;;;5079073;28;20444;-71
2022/11/07 10:14:27;;;;;;;2.63;1.20;;;11.90;99.90;;;;;;5089435;28;20458;-71
2022/11/07 10:17:11;;;;;;;3.23;1.00;;;11.90;99.90;;;;;;5079067;28;20419;-71
2022/11/07 10:19:51;;;;;;;1.40;0.70;;;11.90;99.90;;;;;;5073316;28;20403;-71
2022/11/07 10:22:38;;;;;;;2.43;0.90;;;12.00;99.90;;;;;;5073303;28;20927;-71
2022/11/07 10:25:49;;;;;;;1.90;1.10;;;11.90;99.90;;;;;;5061207;28;20424;-71
2022/11/07 10:28:17;;;;;;;1.40;0.70;;;12.00;99.90;;;;;;5046592;28;20438;-71
2022/11/07 10:30:47;;;;;;;1.57;0.87;;;12.00;99.90;;;;;;5074054;28;20427;-71
2022/11/07 10:33:39;;;;;;;3.80;1.50;;;12.10;99.90;;;;;;5055843;28;20458;-71
2022/11/07 10:36:08;;;;;;;3.00;1.07;;;12.20;99.90;;;;;;5079728;28;20429;-71
2022/11/07 10:38:39;;;;;;;14.03;2.40;;;12.40;99.90;;;;;;5068048;28;20431;-71
2022/11/07 10:41:13;;;;;;;3.07;0.90;;;12.50;99.90;;;;;;5080052;28;20415;-71
2022/11/07 10:43:40;;;;;;;1.50;0.60;;;12.60;99.90;;;;;;5091089;28;20765;-71
2022/11/07 10:46:37;;;;;;;2.20;0.90;;;12.60;99.90;;;;;;5081672;28;20848;-71
2022/11/07 10:49:21;;;;;;;4.93;0.90;;;12.60;99.90;;;;;;5069680;28;20430;-71
2022/11/07 10:51:47;;;;;;;1.60;0.60;;;12.60;99.90;;;;;;5086068;28;20423;-71
2022/11/07 10:54:24;;;;;;;1.87;0.83;;;12.60;99.90;;;;;;5089685;28;20469;-71
2022/11/07 10:57:03;;;;;;;1.83;0.70;;;12.60;99.90;;;;;;5080491;28;20800;-71
2022/11/07 10:59:30;;;;;;;2.90;0.90;;;12.60;99.90;;;;;;5090766;28;20433;-70
2022/11/07 11:01:58;;;;;;;2.10;1.00;;;12.70;99.90;;;;;;5082316;28;20415;-71
2022/11/07 11:04:31;;;;;;;4.57;0.93;;;12.70;99.90;;;;;;5082221;28;20442;-71
2022/11/07 11:07:14;;;;;;;1.30;0.53;;;12.70;99.90;;;;;;5073569;28;20427;-71
2022/11/07 11:09:53;;;;;;;2.50;0.90;;;12.70;99.90;;;;;;5092273;28;20422;-71
2022/11/07 11:12:27;;;;;;;1.93;0.83;;;12.70;99.90;;;;;;5092333;28;20505;-71
2022/11/07 11:15:14;;;;;;;2.63;1.00;;;12.70;99.90;;;;;;5092494;28;20508;-71
2022/11/07 11:17:40;;;;;;;1.90;0.77;;;12.80;99.90;;;;;;5079817;28;20822;-71
2022/11/07 11:20:25;;;;;;;2.27;1.07;;;13.00;99.90;;;;;;5092868;28;20444;-71
2022/11/07 11:22:52;;;;;;;11.43;1.00;;;13.10;99.90;;;;;;5088607;28;20176;-71
2022/11/07 11:25:20;;;;;;;2.33;1.00;;;13.10;99.90;;;;;;5092676;28;20468;-71
2022/11/07 11:27:50;;;;;;;3.50;1.40;;;13.20;99.90;;;;;;5067254;28;20434;-71
2022/11/07 11:30:19;;;;;;;1.50;0.80;;;13.20;99.90;;;;;;5088771;28;20517;-71
2022/11/07 11:33:16;;;;;;;5.10;1.30;;;13.30;99.90;;;;;;5092299;28;20496;-71
2022/11/07 11:35:46;;;;;;;2.47;0.97;;;13.30;99.90;;;;;;5056424;28;20765;-71
2022/11/07 11:38:43;;;;;;;5.30;1.27;;;13.30;99.90;;;;;;5092387;28;20427;-71
2022/11/07 11:41:33;;;;;;;1.30;0.50;;;13.40;99.90;;;;;;5055376;28;20493;-71
2022/11/07 11:44:24;;;;;;;1.80;0.80;;;13.60;99.90;;;;;;5078580;28;20426;-71
2022/11/07 11:47:15;;;;;;;4.03;1.27;;;13.70;99.90;;;;;;5092260;28;20430;-71
2022/11/07 11:49:57;;;;;;;1.50;0.60;;;13.80;99.90;;;;;;5092382;28;20794;-70
2022/11/07 11:52:24;;;;;;;1.30;0.50;;;13.70;99.90;;;;;;5087877;28;20964;-71
2022/11/07 11:54:52;;;;;;;1.70;0.60;;;13.80;99.90;;;;;;5086974;28;20485;-71
2022/11/07 11:57:37;;;;;;;1.50;0.70;;;13.70;99.90;;;;;;5080730;28;20414;-71
2022/11/07 12:00:19;;;;;;;2.77;0.87;;;13.70;99.90;;;;;;5072100;28;20457;-71
2022/11/07 12:02:47;;;;;;;1.27;0.53;;;13.80;99.90;;;;;;5088184;28;20437;-71
2022/11/07 12:05:25;;;;;;;1.37;0.67;;;13.80;99.90;;;;;;5081330;28;20440;-71
2022/11/07 12:08:00;;;;;;;1.93;0.80;;;13.90;99.90;;;;;;5090292;28;20510;-71
2022/11/07 12:10:34;;;;;;;3.37;0.80;;;14.00;99.90;;;;;;5092588;28;20464;-71
2022/11/07 12:13:22;;;;;;;2.47;0.90;;;14.00;99.90;;;;;;5084221;28;20411;-71
2022/11/07 12:16:02;;;;;;;4.90;1.20;;;14.10;99.90;;;;;;5077315;28;20442;-70
2022/11/07 12:18:44;;;;;;;1.20;0.60;;;14.20;99.90;;;;;;5077753;28;20740;-71
2022/11/07 12:21:29;;;;;;;2.23;0.90;;;14.30;99.90;;;;;;5088654;28;20472;-69
2022/11/07 12:24:04;;;;;;;1.40;0.50;;;14.40;99.90;;;;;;5078690;28;20449;-71
2022/11/07 12:26:53;;;;;;;2.40;1.00;;;14.30;99.90;;;;;;5079577;28;20429;-70
2022/11/07 12:29:29;;;;;;;3.70;0.77;;;14.30;99.90;;;;;;5071458;28;20415;-69
2022/11/07 12:32:19;;;;;;;1.30;0.50;;;14.30;99.90;;;;;;5089404;28;20418;-71
2022/11/07 12:35:26;;;;;;;3.77;0.83;;;14.50;99.90;;;;;;5092186;28;20472;-70
2022/11/07 12:38:23;;;;;;;2.60;0.93;;;14.40;99.90;;;;;;5049820;28;20419;-70
2022/11/07 12:40:52;;;;;;;1.93;0.80;;;14.50;99.90;;;;;;5071704;28;20419;-70
2022/11/07 12:43:35;;;;;;;1.20;0.50;;;14.30;99.90;;;;;;5089643;28;20425;-71
2022/11/07 12:46:17;;;;;;;9.13;0.90;;;14.20;99.90;;;;;;5079766;28;20451;-71
2022/11/07 12:48:54;;;;;;;1.73;0.70;;;14.30;99.90;;;;;;5089454;28;20450;-72
2022/11/07 12:51:37;;;;;;;4.70;0.70;;;14.30;99.90;;;;;;5085993;28;21332;-71
2022/11/07 12:54:29;;;;;;;3.70;0.93;;;14.40;99.90;;;;;;5082231;28;20459;-71
2022/11/07 12:56:56;;;;;;;1.90;0.50;;;14.40;99.90;;;;;;5087209;28;21064;-71
2022/11/07 12:59:30;;;;;;;2.03;0.90;;;14.30;99.90;;;;;;5085372;28;20422;-71
2022/11/07 13:02:05;;;;;;;3.50;0.80;;;14.30;99.90;;;;;;5091588;28;20445;-71
2022/11/07 13:04:38;;;;;;;1.70;0.67;;;14.20;99.90;;;;;;5086968;28;20417;-71
2022/11/07 13:07:25;;;;;;;2.23;0.63;;;14.10;99.90;;;;;;5091109;28;20415;-70
2022/11/07 13:09:56;;;;;;;1.60;0.70;;;14.00;99.90;;;;;;5086631;28;20497;-70
2022/11/07 13:12:27;;;;;;;2.57;1.20;;;14.00;99.90;;;;;;5090907;28;20429;-70
2022/11/07 13:14:53;;;;;;;1.67;1.03;;;14.00;99.90;;;;;;5090327;28;20580;-70